createdAt,value
2022-12-03T00:01:40.719Z,0.20
2022-12-03T00:04:08.950Z,0.20
2022-12-03T00:06:37.199Z,0.20
2022-12-03T00:09:06.127Z,0.30
2022-12-03T00:11:34.315Z,0.40
2022-12-03T00:14:03.971Z,0.40
2022-12-03T00:16:32.170Z,0.50
2022-12-03T00:19:00.365Z,0.50
2022-12-03T00:21:28.570Z,0.50
2022-12-03T00:23:56.794Z,0.50
2022-12-03T00:26:24.930Z,0.50
2022-12-03T00:28:54.751Z,0.50
2022-12-03T00:31:24.372Z,0.40
2022-12-03T00:33:53.122Z,0.40
2022-12-03T00:36:21.644Z,0.30
2022-12-03T00:38:49.803Z,0.20
2022-12-03T00:41:17.940Z,0.20
2022-12-03T00:43:46.049Z,0.30
2022-12-03T00:46:19.700Z,0.30
2022-12-03T00:48:50.706Z,0.40
2022-12-03T00:51:18.872Z,0.40
2022-12-03T00:53:47.011Z,0.30
2022-12-03T00:56:15.477Z,0.40
2022-12-03T00:58:43.752Z,0.40
2022-12-03T01:01:11.921Z,0.40
2022-12-03T01:03:40.170Z,0.40
2022-12-03T01:06:10.031Z,0.40
2022-12-03T01:08:38.281Z,0.40
2022-12-03T01:11:27.521Z,0.40
2022-12-03T01:13:55.618Z,0.40
2022-12-03T01:16:23.833Z,0.40
2022-12-03T01:18:53.098Z,0.30
2022-12-03T01:21:22.591Z,0.30
2022-12-03T01:23:50.701Z,0.30
2022-12-03T01:26:18.902Z,0.30
2022-12-03T01:28:47.209Z,0.30
2022-12-03T01:31:33.165Z,0.20
2022-12-03T01:34:01.827Z,0.20
2022-12-03T01:36:31.430Z,0.30
2022-12-03T01:38:59.538Z,0.40
2022-12-03T01:41:27.904Z,0.50
2022-12-03T01:43:57.488Z,0.60
2022-12-03T01:46:31.933Z,0.60
2022-12-03T01:49:00.175Z,0.70
2022-12-03T01:51:28.351Z,0.50
2022-12-03T01:53:59.080Z,0.50
2022-12-03T01:56:27.268Z,0.50
2022-12-03T01:58:55.481Z,0.50
2022-12-03T02:01:23.784Z,0.60
2022-12-03T02:03:52.300Z,0.50
2022-12-03T02:06:22.653Z,0.50
2022-12-03T02:08:50.879Z,0.50
2022-12-03T02:11:23.405Z,0.60
2022-12-03T02:13:54.997Z,0.70
2022-12-03T02:16:23.330Z,0.70
2022-12-03T02:18:51.779Z,0.70
2022-12-03T02:21:25.390Z,0.70
2022-12-03T02:24:03.264Z,0.70
2022-12-03T02:26:32.869Z,0.60
2022-12-03T02:29:02.395Z,0.50
2022-12-03T02:31:30.641Z,0.50
2022-12-03T02:33:58.775Z,0.60
2022-12-03T02:36:27.119Z,0.60
2022-12-03T02:38:55.411Z,0.70
2022-12-03T02:41:40.965Z,0.60
2022-12-03T02:44:11.260Z,0.50
2022-12-03T02:46:39.810Z,0.50
2022-12-03T02:49:08.716Z,0.50
2022-12-03T02:51:36.986Z,0.40
2022-12-03T02:54:05.547Z,0.40
2022-12-03T02:56:34.592Z,0.40
2022-12-03T02:59:05.432Z,0.40
2022-12-03T03:01:35.918Z,0.40
2022-12-03T03:04:05.431Z,0.50
2022-12-03T03:06:33.843Z,0.50
2022-12-03T03:09:02.147Z,0.50
2022-12-03T03:11:30.458Z,0.50
2022-12-03T03:13:58.734Z,0.40
2022-12-03T03:16:26.981Z,0.40
2022-12-03T03:18:56.594Z,0.30
2022-12-03T03:21:24.774Z,0.10
2022-12-03T03:23:52.945Z,0.20
2022-12-03T03:26:22.223Z,0.20
2022-12-03T03:28:52.224Z,0.20
2022-12-03T03:31:24.058Z,0.30
2022-12-03T03:33:52.638Z,0.30
2022-12-03T03:36:23.637Z,0.30
2022-12-03T03:38:51.864Z,0.30
2022-12-03T03:41:21.835Z,0.30
2022-12-03T03:43:51.159Z,0.30
2022-12-03T03:46:20.469Z,0.40
2022-12-03T03:48:50.502Z,0.50
2022-12-03T03:51:19.956Z,0.40
2022-12-03T03:53:50.952Z,0.20
2022-12-03T03:56:21.122Z,0.30
2022-12-03T03:58:49.408Z,0.30
2022-12-03T04:01:19.200Z,0.20
2022-12-03T04:03:47.551Z,0.20
2022-12-03T04:08:59.271Z,0.20
2022-12-03T04:11:44.235Z,0.20
2022-12-03T04:14:12.398Z,0.20
2022-12-03T04:16:40.598Z,0.10
2022-12-03T04:19:08.801Z,0.20
2022-12-03T04:21:54.353Z,0.30
2022-12-03T04:24:23.836Z,0.20
2022-12-03T04:27:09.319Z,0.10
2022-12-03T04:29:38.208Z,0.30
2022-12-03T04:32:24.111Z,0.30
2022-12-03T04:35:09.984Z,0.40
2022-12-03T04:37:38.147Z,0.40
2022-12-03T04:40:29.430Z,0.50
2022-12-03T04:42:57.624Z,0.50
2022-12-03T04:45:26.048Z,0.50
2022-12-03T04:47:54.224Z,0.60
2022-12-03T04:50:22.455Z,0.60
2022-12-03T04:52:50.628Z,0.70
2022-12-03T04:55:24.069Z,0.70
2022-12-03T04:57:52.256Z,0.70
2022-12-03T05:00:20.779Z,0.70
2022-12-03T05:02:49.266Z,0.70
2022-12-03T05:05:17.877Z,0.70
2022-12-03T05:07:46.127Z,0.70
2022-12-03T05:10:14.340Z,0.70
2022-12-03T05:12:43.937Z,0.60
2022-12-03T05:15:12.378Z,0.50
2022-12-03T05:17:40.542Z,0.50
2022-12-03T05:20:28.323Z,0.40
2022-12-03T05:22:56.775Z,0.20
2022-12-03T05:25:24.939Z,0.20
2022-12-03T05:27:54.865Z,0.20
2022-12-03T05:30:23.572Z,0.10
2022-12-03T05:32:51.831Z,0.10
2022-12-03T05:35:20.022Z,0.10
2022-12-03T05:37:48.264Z,0.10
2022-12-03T05:40:16.856Z,0.10
2022-12-03T05:42:54.764Z,0.00
2022-12-03T05:45:26.399Z,0.00
2022-12-03T05:47:55.079Z,0.00
2022-12-03T05:50:24.690Z,0.10
2022-12-03T05:52:53.127Z,0.00
2022-12-03T05:55:22.046Z,0.20
2022-12-03T05:57:50.546Z,0.20
2022-12-03T06:00:21.020Z,0.30
2022-12-03T06:02:50.621Z,0.30
2022-12-03T06:05:20.482Z,0.30
2022-12-03T06:07:49.708Z,0.30
2022-12-03T06:10:20.007Z,0.30
2022-12-03T06:12:48.149Z,0.30
2022-12-03T06:15:17.711Z,0.40
2022-12-03T06:17:45.996Z,0.40
2022-12-03T06:20:17.050Z,0.40
2022-12-03T06:22:45.223Z,0.40
2022-12-03T06:25:13.881Z,0.30
2022-12-03T06:27:42.344Z,0.30
2022-12-03T06:30:15.167Z,0.30
2022-12-03T06:32:43.348Z,0.20
2022-12-03T06:35:12.635Z,0.10
2022-12-03T06:37:42.168Z,0.00
2022-12-03T06:40:11.154Z,0.10
2022-12-03T06:42:39.396Z,0.10
2022-12-03T06:45:08.556Z,0.20
2022-12-03T06:47:36.920Z,0.20
2022-12-03T06:50:06.070Z,0.30
2022-12-03T06:52:34.243Z,0.30
2022-12-03T06:55:03.791Z,0.40
2022-12-03T06:57:31.948Z,0.40
2022-12-03T07:00:00.122Z,0.40
2022-12-03T07:02:28.707Z,0.30
2022-12-03T07:04:57.423Z,0.10
2022-12-03T07:07:27.031Z,0.00
2022-12-03T07:09:55.863Z,-0.10
2022-12-03T07:12:25.515Z,-0.10
2022-12-03T07:14:54.019Z,-0.20
2022-12-03T07:17:22.355Z,-0.20
2022-12-03T07:19:50.513Z,-0.30
2022-12-03T07:22:18.976Z,-0.20
2022-12-03T07:24:47.145Z,-0.20
2022-12-03T07:27:15.232Z,-0.10
2022-12-03T07:29:44.693Z,0.00
2022-12-03T07:32:12.850Z,0.10
2022-12-03T07:34:41.001Z,0.10
2022-12-03T07:37:09.170Z,0.00
2022-12-03T07:39:37.844Z,0.10
2022-12-03T07:42:06.330Z,0.10
2022-12-03T07:44:34.393Z,0.20
2022-12-03T07:47:03.983Z,0.10
2022-12-03T07:49:32.857Z,0.20
2022-12-03T07:52:01.604Z,0.30
2022-12-03T07:54:30.019Z,0.30
2022-12-03T07:57:01.450Z,0.30
2022-12-03T07:59:30.560Z,0.50
2022-12-03T08:01:58.948Z,0.50
2022-12-03T08:04:28.450Z,0.60
2022-12-03T08:06:56.632Z,0.60
2022-12-03T08:09:24.782Z,0.70
2022-12-03T08:11:53.495Z,0.80
2022-12-03T08:14:22.279Z,0.80
2022-12-03T08:16:50.567Z,0.90
2022-12-03T08:19:19.562Z,1.00
2022-12-03T08:21:49.021Z,1.00
2022-12-03T08:24:19.164Z,1.10
2022-12-03T08:26:49.058Z,1.10
2022-12-03T08:29:19.402Z,1.20
2022-12-03T08:31:52.009Z,1.20
2022-12-03T08:34:21.849Z,1.20
2022-12-03T08:36:54.332Z,1.20
2022-12-03T08:39:33.246Z,1.20
2022-12-03T08:42:28.361Z,1.20
2022-12-03T08:44:57.034Z,1.20
2022-12-03T08:47:26.135Z,1.20
2022-12-03T08:49:58.076Z,1.20
2022-12-03T08:52:33.766Z,1.30
2022-12-03T08:55:24.250Z,1.30
2022-12-03T08:57:53.170Z,1.40
2022-12-03T09:00:23.995Z,1.50
2022-12-03T09:02:53.790Z,1.50
2022-12-03T09:05:24.477Z,1.50
2022-12-03T09:07:54.309Z,1.40
2022-12-03T09:10:22.634Z,1.30
2022-12-03T09:12:50.761Z,1.50
2022-12-03T09:15:19.180Z,1.40
2022-12-03T09:17:48.890Z,1.50
2022-12-03T09:20:17.140Z,1.60
2022-12-03T09:22:45.371Z,1.70
2022-12-03T09:25:15.014Z,1.80
2022-12-03T09:27:43.142Z,2.00
2022-12-03T09:30:11.909Z,2.10
2022-12-03T09:32:40.082Z,2.10
2022-12-03T09:35:09.711Z,2.10
2022-12-03T09:37:37.844Z,2.00
2022-12-03T09:40:07.273Z,1.80
2022-12-03T09:42:37.080Z,1.90
2022-12-03T09:45:11.013Z,2.00
2022-12-03T09:47:39.840Z,1.90
2022-12-03T09:50:12.365Z,2.00
2022-12-03T09:53:03.159Z,2.00
2022-12-03T09:55:31.869Z,2.10
2022-12-03T09:58:01.429Z,2.10
2022-12-03T10:00:31.447Z,2.00
2022-12-03T10:03:03.038Z,2.00
2022-12-03T10:05:31.653Z,2.10
2022-12-03T10:08:05.382Z,2.00
2022-12-03T10:10:35.743Z,2.00
2022-12-03T10:13:06.306Z,1.90
2022-12-03T10:15:34.991Z,1.90
2022-12-03T10:18:14.317Z,2.00
2022-12-03T10:20:42.494Z,2.10
2022-12-03T10:23:10.684Z,2.20
2022-12-03T10:25:51.936Z,2.20
2022-12-03T10:28:32.582Z,2.20
2022-12-03T10:31:02.404Z,2.20
2022-12-03T10:33:33.331Z,2.20
2022-12-03T10:36:26.995Z,2.10
2022-12-03T10:39:09.188Z,2.30
2022-12-03T10:41:38.591Z,2.40
2022-12-03T10:44:17.499Z,2.50
2022-12-03T10:46:46.743Z,2.40
2022-12-03T10:49:18.309Z,2.40
2022-12-03T10:51:48.614Z,2.50
2022-12-03T10:54:20.953Z,2.40
2022-12-03T10:56:50.334Z,2.50
2022-12-03T10:59:22.893Z,2.50
2022-12-03T11:01:51.833Z,2.40
2022-12-03T11:04:22.814Z,2.30
2022-12-03T11:06:51.878Z,2.30
2022-12-03T11:09:22.960Z,2.40
2022-12-03T11:11:51.520Z,2.40
2022-12-03T11:14:57.525Z,2.50
2022-12-03T11:17:46.695Z,2.50
2022-12-03T11:21:11.996Z,2.60
2022-12-03T11:24:20.269Z,2.60
2022-12-03T11:27:27.150Z,2.80
2022-12-03T11:30:00.256Z,2.90
2022-12-03T11:33:08.538Z,2.90
2022-12-03T11:35:53.797Z,2.90
2022-12-03T11:38:42.183Z,3.00
2022-12-03T11:41:14.022Z,2.90
2022-12-03T11:44:20.082Z,3.00
2022-12-03T11:46:49.607Z,3.10
2022-12-03T11:49:33.714Z,3.10
2022-12-03T11:52:12.907Z,3.10
2022-12-03T11:54:41.136Z,3.00
2022-12-03T11:57:35.810Z,3.00
2022-12-03T12:00:10.313Z,3.10
2022-12-03T12:02:43.136Z,3.00
2022-12-03T12:05:20.440Z,2.90
2022-12-03T12:07:50.745Z,3.00
2022-12-03T12:10:45.117Z,3.00
2022-12-03T12:13:44.723Z,2.90
2022-12-03T12:16:13.197Z,3.00
2022-12-03T12:18:43.463Z,3.00
2022-12-03T12:21:39.796Z,2.90
2022-12-03T12:24:33.252Z,2.80
2022-12-03T12:27:03.123Z,2.90
2022-12-03T12:29:31.310Z,2.90
2022-12-03T12:32:03.377Z,2.80
2022-12-03T12:34:32.843Z,2.80
2022-12-03T12:37:02.344Z,2.80
2022-12-03T12:39:31.922Z,2.70
2022-12-03T12:42:01.475Z,2.70
2022-12-03T12:44:29.646Z,2.80
2022-12-03T12:47:13.508Z,2.80
2022-12-03T12:49:41.759Z,2.90
2022-12-03T12:52:15.225Z,3.00
2022-12-03T12:54:43.540Z,3.10
2022-12-03T12:57:14.801Z,3.10
2022-12-03T12:59:43.133Z,3.00
2022-12-03T13:02:42.321Z,2.90
2022-12-03T13:05:15.107Z,2.80
2022-12-03T13:07:44.618Z,2.50
2022-12-03T13:10:42.553Z,2.50
2022-12-03T13:13:31.975Z,2.60
2022-12-03T13:16:07.066Z,2.40
2022-12-03T13:18:47.571Z,2.30
2022-12-03T13:21:22.124Z,2.10
2022-12-03T13:23:51.891Z,2.10
2022-12-03T13:26:36.182Z,2.00
2022-12-03T13:29:16.039Z,2.20
2022-12-03T13:31:51.591Z,2.30
2022-12-03T13:34:22.003Z,2.20
2022-12-03T13:36:57.021Z,2.10
2022-12-03T13:39:30.368Z,2.20
2022-12-03T13:42:17.760Z,2.20
2022-12-03T13:44:49.189Z,2.20
2022-12-03T13:47:20.510Z,2.20
2022-12-03T13:49:54.061Z,2.20
2022-12-03T13:52:23.749Z,2.20
2022-12-03T13:54:53.818Z,2.30
2022-12-03T13:57:23.757Z,2.30
2022-12-03T13:59:53.672Z,2.20
2022-12-03T14:02:22.161Z,2.20
2022-12-03T14:04:52.161Z,2.10
2022-12-03T14:07:23.600Z,2.00
2022-12-03T14:09:52.124Z,2.10
2022-12-03T14:12:33.744Z,2.10
2022-12-03T14:15:05.121Z,2.20
2022-12-03T14:17:33.613Z,2.00
2022-12-03T14:20:01.872Z,2.00
2022-12-03T14:22:30.704Z,1.90
2022-12-03T14:24:59.243Z,1.90
2022-12-03T14:27:27.553Z,1.90
2022-12-03T14:29:56.073Z,1.90
2022-12-03T14:32:25.962Z,1.90
2022-12-03T14:34:54.125Z,1.90
2022-12-03T14:37:22.344Z,1.90
2022-12-03T14:39:50.522Z,1.90
2022-12-03T14:42:18.711Z,1.90
2022-12-03T14:44:48.174Z,1.90
2022-12-03T14:47:18.648Z,1.80
2022-12-03T14:49:48.118Z,1.70
2022-12-03T14:52:16.377Z,1.70
2022-12-03T14:54:44.556Z,1.60
2022-12-03T14:57:14.301Z,1.60
2022-12-03T14:59:43.212Z,1.70
2022-12-03T15:02:12.950Z,1.70
2022-12-03T15:04:41.827Z,1.80
2022-12-03T15:07:11.400Z,1.70
2022-12-03T15:09:39.637Z,1.50
2022-12-03T15:12:08.508Z,1.40
2022-12-03T15:14:36.964Z,1.30
2022-12-03T15:17:05.254Z,1.30
2022-12-03T15:19:33.503Z,1.40
2022-12-03T15:22:01.655Z,1.50
2022-12-03T15:24:31.225Z,1.50
2022-12-03T15:26:59.478Z,1.60
2022-12-03T15:29:27.615Z,1.60
2022-12-03T15:31:55.853Z,1.50
2022-12-03T15:34:24.094Z,1.60
2022-12-03T15:36:53.047Z,1.60
2022-12-03T15:39:21.503Z,1.60
2022-12-03T15:41:52.846Z,1.60
2022-12-03T15:44:21.080Z,1.60
2022-12-03T15:46:49.277Z,1.60
2022-12-03T15:49:18.072Z,1.60
2022-12-03T15:51:46.300Z,1.60
2022-12-03T15:54:14.541Z,1.60
2022-12-03T15:56:42.718Z,1.60
2022-12-03T15:59:13.170Z,1.40
2022-12-03T16:01:41.403Z,1.40
2022-12-03T16:04:09.562Z,1.30
2022-12-03T16:06:37.722Z,1.30
2022-12-03T16:09:06.243Z,1.30
2022-12-03T16:11:34.455Z,1.40
2022-12-03T16:14:02.875Z,1.50
2022-12-03T16:16:32.637Z,1.50
2022-12-03T16:19:00.863Z,1.50
2022-12-03T16:21:29.130Z,1.40
2022-12-03T16:23:57.265Z,1.50
2022-12-03T16:26:25.508Z,1.50
2022-12-03T16:28:54.255Z,1.60
2022-12-03T16:31:22.557Z,1.60
2022-12-03T16:33:52.327Z,1.70
2022-12-03T16:36:20.536Z,1.70
2022-12-03T16:38:48.948Z,1.70
2022-12-03T16:41:17.477Z,1.70
2022-12-03T16:43:48.379Z,1.80
2022-12-03T16:46:26.130Z,1.80
2022-12-03T16:48:57.898Z,1.80
2022-12-03T16:51:27.077Z,1.80
2022-12-03T16:53:55.475Z,1.80
2022-12-03T16:56:23.800Z,1.80
2022-12-03T16:58:51.926Z,1.80
2022-12-03T17:01:20.178Z,1.80
2022-12-03T17:03:48.403Z,1.80
2022-12-03T17:06:18.024Z,1.80
2022-12-03T17:08:49.760Z,1.80
2022-12-03T17:11:18.908Z,1.80
2022-12-03T17:13:47.156Z,1.80
2022-12-03T17:16:15.597Z,1.80
2022-12-03T17:18:43.907Z,1.70
2022-12-03T17:21:12.093Z,1.70
2022-12-03T17:23:41.627Z,1.70
2022-12-03T17:26:09.871Z,1.70
2022-12-03T17:28:38.031Z,1.70
2022-12-03T17:31:06.680Z,1.70
2022-12-03T17:33:34.869Z,1.70
2022-12-03T17:36:03.342Z,1.70
2022-12-03T17:38:38.630Z,1.70
2022-12-03T17:41:08.779Z,1.70
2022-12-03T17:43:36.950Z,1.50
2022-12-03T17:46:06.780Z,1.40
2022-12-03T17:48:35.555Z,1.40
2022-12-03T17:51:03.793Z,1.50
2022-12-03T17:53:31.987Z,1.50
2022-12-03T17:56:00.172Z,1.50
2022-12-03T17:58:29.837Z,1.50
2022-12-03T18:01:02.427Z,1.50
2022-12-03T18:03:31.657Z,1.50
2022-12-03T18:05:59.870Z,1.50
2022-12-03T18:08:28.075Z,1.50
2022-12-03T18:10:56.234Z,1.40
2022-12-03T18:13:24.419Z,1.40
2022-12-03T18:15:54.016Z,1.40
2022-12-03T18:18:22.169Z,1.40
2022-12-03T18:20:50.372Z,1.20
2022-12-03T18:23:18.523Z,1.20
2022-12-03T18:25:46.785Z,1.20
2022-12-03T18:28:14.919Z,1.20
2022-12-03T18:30:47.528Z,1.20
2022-12-03T18:33:21.267Z,1.20
2022-12-03T18:35:49.610Z,1.10
2022-12-03T18:38:18.962Z,1.10
2022-12-03T18:40:48.346Z,1.10
2022-12-03T18:43:17.748Z,1.10
2022-12-03T18:45:45.960Z,1.10
2022-12-03T18:48:15.089Z,1.00
2022-12-03T18:50:45.401Z,1.00
2022-12-03T18:53:14.976Z,1.00
2022-12-03T18:55:48.404Z,1.00
2022-12-03T18:58:19.442Z,0.90
2022-12-03T19:00:47.671Z,0.90
2022-12-03T19:03:15.879Z,0.90
2022-12-03T19:05:45.745Z,0.80
2022-12-03T19:08:15.307Z,0.80
2022-12-03T19:10:44.214Z,0.80
2022-12-03T19:13:12.399Z,0.90
2022-12-03T19:15:41.608Z,0.90
2022-12-03T19:18:09.755Z,0.90
2022-12-03T19:20:41.815Z,0.90
2022-12-03T19:23:11.681Z,0.90
2022-12-03T19:25:39.938Z,0.90
2022-12-03T19:28:08.143Z,0.90
2022-12-03T19:30:36.933Z,0.90
2022-12-03T19:33:05.176Z,0.90
2022-12-03T19:35:33.616Z,0.90
2022-12-03T19:38:01.792Z,0.90
2022-12-03T19:40:32.132Z,1.00
2022-12-03T19:43:00.284Z,1.00
2022-12-03T19:45:28.629Z,1.00
2022-12-03T19:47:57.103Z,1.00
2022-12-03T19:50:25.642Z,1.00
2022-12-03T19:52:53.929Z,1.10
2022-12-03T19:55:22.594Z,1.00
2022-12-03T19:57:53.209Z,1.00
2022-12-03T20:00:21.717Z,1.00
2022-12-03T20:02:50.806Z,1.00
2022-12-03T20:05:19.118Z,1.10
2022-12-03T20:07:47.341Z,1.00
2022-12-03T20:10:15.924Z,1.10
2022-12-03T20:12:44.121Z,1.10
2022-12-03T20:15:15.016Z,1.10
2022-12-03T20:17:43.298Z,1.10
2022-12-03T20:20:12.288Z,1.10
2022-12-03T20:22:40.505Z,1.10
2022-12-03T20:25:09.410Z,1.10
2022-12-03T20:27:37.740Z,1.10
2022-12-03T20:30:07.123Z,1.10
2022-12-03T20:32:43.563Z,1.10
2022-12-03T20:35:13.469Z,1.10
2022-12-03T20:37:41.644Z,1.10
2022-12-03T20:40:10.792Z,1.10
2022-12-03T20:42:38.954Z,1.10
2022-12-03T20:45:08.569Z,1.10
2022-12-03T20:47:38.087Z,1.10
2022-12-03T20:50:07.545Z,1.10
2022-12-03T20:52:35.738Z,1.10
2022-12-03T20:55:03.968Z,1.10
2022-12-03T20:57:32.066Z,1.10
2022-12-03T21:00:00.274Z,1.20
2022-12-03T21:02:28.603Z,1.20
2022-12-03T21:04:58.282Z,1.10
2022-12-03T21:07:26.564Z,1.20
2022-12-03T21:09:55.066Z,1.20
2022-12-03T21:12:23.318Z,1.20
2022-12-03T21:14:51.529Z,1.20
2022-12-03T21:17:20.381Z,1.20
2022-12-03T21:19:48.612Z,1.20
2022-12-03T21:22:18.138Z,1.20
2022-12-03T21:24:46.422Z,1.20
2022-12-03T21:27:19.998Z,1.20
2022-12-03T21:29:50.092Z,1.20
2022-12-03T21:32:18.578Z,1.20
2022-12-03T21:34:46.968Z,1.20
2022-12-03T21:37:15.222Z,1.20
2022-12-03T21:39:44.851Z,1.20
2022-12-03T21:42:34.777Z,1.10
2022-12-03T21:45:01.388Z,1.10
2022-12-03T21:47:36.392Z,1.20
2022-12-03T21:50:07.294Z,1.20
2022-12-03T21:52:36.109Z,1.20
2022-12-03T21:55:06.356Z,1.20
2022-12-03T21:57:36.999Z,1.20
2022-12-03T22:00:07.727Z,1.20
2022-12-03T22:02:40.410Z,1.20
2022-12-03T22:05:09.502Z,1.20
2022-12-03T22:07:39.063Z,1.10
2022-12-03T22:10:11.176Z,1.20
2022-12-03T22:12:40.822Z,1.20
2022-12-03T22:15:13.517Z,1.20
2022-12-03T22:17:46.483Z,1.20
2022-12-03T22:20:15.273Z,1.20
2022-12-03T22:22:43.483Z,1.30
2022-12-03T22:25:13.073Z,1.20
2022-12-03T22:27:41.193Z,1.20
2022-12-03T22:30:10.221Z,1.20
2022-12-03T22:32:38.447Z,1.20
2022-12-03T22:35:07.450Z,1.30
2022-12-03T22:37:35.570Z,1.30
2022-12-03T22:40:04.685Z,1.30
2022-12-03T22:42:34.249Z,1.30
2022-12-03T22:45:02.492Z,1.30
2022-12-03T22:47:30.634Z,1.30
2022-12-03T22:49:58.855Z,1.30
2022-12-03T22:52:27.025Z,1.30
2022-12-03T22:54:55.283Z,1.30
2022-12-03T22:57:23.444Z,1.40
2022-12-03T22:59:53.397Z,1.30
2022-12-03T23:02:23.518Z,1.40
2022-12-03T23:04:51.777Z,1.40
2022-12-03T23:07:19.952Z,1.40
2022-12-03T23:09:48.068Z,1.40
2022-12-03T23:12:16.575Z,1.40
2022-12-03T23:14:44.774Z,1.40
2022-12-03T23:17:14.252Z,1.40
2022-12-03T23:19:42.376Z,1.40
2022-12-03T23:22:10.523Z,1.40
2022-12-03T23:24:38.696Z,1.30
2022-12-03T23:27:06.858Z,1.40
2022-12-03T23:29:35.743Z,1.40
2022-12-03T23:32:03.944Z,1.40
2022-12-03T23:34:33.544Z,1.40
2022-12-03T23:37:01.737Z,1.40
2022-12-03T23:39:29.875Z,1.30
2022-12-03T23:41:58.494Z,1.30
2022-12-03T23:44:28.616Z,1.30
2022-12-03T23:46:56.871Z,1.30
2022-12-03T23:49:25.118Z,1.30
2022-12-03T23:51:54.610Z,1.30
2022-12-03T23:54:22.865Z,1.30
2022-12-03T23:56:51.023Z,1.20
2022-12-03T23:59:19.216Z,1.20
